메인 페이지
METAR-TAF:

METAR-TAF

공항 :

키토, 에콰도르

마리스칼 수크레 국제공항

위도: 0-06-48S, 경도: 78-21-31W, 고도: 2400m

현재 날씨관측

예보는 53분 전, 18:00시(UTC)에 발표되었습니다.
남남서4kt
온도 17°C
습도 68%
기압 1025 hPa
시정 10km 이상
고도 2000ft 상공 구름 보통
고도 9000ft 상공 구름 많음
약한비

METAR: SEQM 161800Z 20004KT 9999 -RA SCT020 BKN090 17/11 Q1025 NOSIG RMK A3028

시각: 13:53 (18:53 UTC)

예보

예보는 2 시간 22분 전, 16:31시(UTC)에 발표되었습니다.
예보 대상 시간: 16일 18시부터 17일 18시까지 (UTC)
10kt
시정 10km 이상
고도 2000ft 상공 구름 많음
고도 8000ft 상공 구름 많음
일시적
16일 20시부터 16일 24시까지 (UTC)
17일 0100시부터 (UTC)
kt
시정: 8000m
고도 800ft 상공 구름 보통
고도 2000ft 상공 구름 보통
고도 8000ft 상공 흐림
곳곳에 안개
일시적
17일 08시부터 17일 11시까지 (UTC)
시정: 4000m
박무
17일 1200시부터 (UTC)
여러 방향의 바람 3kt
시정 10km 이상
고도 2000ft 상공 구름 보통
고도 8000ft 상공 구름 많음

TAF: SEQM 161631Z 1618/1718 36010KT 9999 BKN020 BKN080 TEMPO 1620/1624 RA FM170100 00000KT 8000 BCFG SCT008 SCT020 OVC080 TEMPO 1708/1711 4000 BR FM171200 VRB03KT 9999 SCT020 BKN080 TX19/1619Z TN11/1711Z

4,000개 이상의 공항 관측 자료 및 예보 (METAR 및 TAF 보고).

지도상에서 검색 가능한 기상관측소가 노란 점과 빨간 점으로 표시되어 있습니다.

기상관측소 명을 보려면 표시 위로 마우스를 이동하세요.

날씨 관측과 예보를 보려면 클릭하세요.

지도 변경 : 확대하려면 엑스 표시가 있는 녹색 버튼, 축소하려면 빼기 표시가 있는 녹색 버튼, 다음 페이지의 지도를 보려면 녹색 화살표를 클릭하세요.


METAR-TAF: